Lakeside, Missouri
Current Conditions -  °F | °C
As of 6:53 AM on Tuesday 21 Oct 2014 (Local Time) from KJLN Reporting Station
Haze Haze  
Wind Chill: 50°   Ceiling: 200
Heat Index: 50°   Visibility: 1mi
Dew Point: 50°   Wind: 5mph
Humidity: 100%   Direction: 110°ESE
Pressure: 30.11"   Gusts: NA
Location:  37.1074°N, 94.5218°W
Report Text: KJLN 211153Z 11004KT 1SM BR VV002 10/10 A3011 RMK AO2 SLP191 T01000100 10122 20089 53007
Loading
Personal Weather Stations






























Interactive Weather Map
Tropical Storm Tracking
New forecast layout! Learn more

10-Day Weather Forecast

Advertisements
Track Severe Weather on mobile